sensor_id;sensor_type;location;lat;lon;timestamp;P1;durP1;ratioP1;P2;durP2;ratioP2
21733;SDS011;11029;47.820;10.534;2022-09-30T13:59:16;2.43;;;2.20;;
21733;SDS011;11029;47.820;10.534;2022-09-30T14:12:56;2.55;;;1.70;;
21733;SDS011;11029;47.820;10.534;2022-09-30T14:15:48;2.25;;;1.55;;
21733;SDS011;11029;47.820;10.534;2022-09-30T14:18:43;1.55;;;1.45;;
21733;SDS011;11029;47.820;10.534;2022-09-30T14:21:23;1.77;;;1.67;;
21733;SDS011;11029;47.820;10.534;2022-09-30T14:23:58;2.00;;;1.90;;
21733;SDS011;11029;47.820;10.534;2022-09-30T14:29:55;2.00;;;1.73;;
21733;SDS011;11029;47.820;10.534;2022-09-30T14:32:43;1.60;;;1.50;;
21733;SDS011;11029;47.820;10.534;2022-09-30T14:35:17;1.70;;;1.60;;
21733;SDS011;11029;47.820;10.534;2022-09-30T14:38:07;1.80;;;1.70;;
21733;SDS011;11029;47.820;10.534;2022-09-30T14:40:51;1.75;;;1.58;;
21733;SDS011;11029;47.820;10.534;2022-09-30T14:43:21;2.22;;;2.00;;
21733;SDS011;11029;47.820;10.534;2022-09-30T14:45:54;2.05;;;1.85;;
21733;SDS011;11029;47.820;10.534;2022-09-30T14:48:23;2.13;;;2.03;;
21733;SDS011;11029;47.820;10.534;2022-09-30T14:51:10;3.35;;;2.20;;
21733;SDS011;11029;47.820;10.534;2022-09-30T14:53:55;2.33;;;1.98;;
21733;SDS011;11029;47.820;10.534;2022-09-30T14:56:27;3.17;;;1.80;;
21733;SDS011;11029;47.820;10.534;2022-09-30T14:58:59;3.13;;;2.83;;
21733;SDS011;11029;47.820;10.534;2022-09-30T15:01:41;2.22;;;2.03;;
21733;SDS011;11029;47.820;10.534;2022-09-30T15:04:17;4.13;;;3.83;;
21733;SDS011;11029;47.820;10.534;2022-09-30T15:06:48;2.53;;;2.33;;
21733;SDS011;11029;47.820;10.534;2022-09-30T15:09:21;3.85;;;1.85;;
21733;SDS011;11029;47.820;10.534;2022-09-30T15:12:03;3.00;;;2.00;;
21733;SDS011;11029;47.820;10.534;2022-09-30T15:14:52;3.63;;;3.25;;
21733;SDS011;11029;47.820;10.534;2022-09-30T15:17:22;4.32;;;3.92;;
21733;SDS011;11029;47.820;10.534;2022-09-30T15:19:53;5.15;;;4.50;;
21733;SDS011;11029;47.820;10.534;2022-09-30T15:22:25;4.80;;;4.13;;
21733;SDS011;11029;47.820;10.534;2022-09-30T15:24:54;5.38;;;4.65;;
21733;SDS011;11029;47.820;10.534;2022-09-30T15:27:23;6.35;;;5.55;;
21733;SDS011;11029;47.820;10.534;2022-09-30T15:29:55;7.53;;;6.20;;
21733;SDS011;11029;47.820;10.534;2022-09-30T15:32:24;6.47;;;5.70;;
21733;SDS011;11029;47.820;10.534;2022-09-30T15:34:53;6.63;;;4.25;;
21733;SDS011;11029;47.820;10.534;2022-09-30T15:37:24;4.55;;;4.13;;
21733;SDS011;11029;47.820;10.534;2022-09-30T15:39:59;6.05;;;3.75;;
21733;SDS011;11029;47.820;10.534;2022-09-30T15:45:27;5.07;;;4.57;;
21733;SDS011;11029;47.820;10.534;2022-09-30T15:50:43;4.35;;;3.95;;
21733;SDS011;11029;47.820;10.534;2022-09-30T15:53:16;4.63;;;4.13;;
21733;SDS011;11029;47.820;10.534;2022-09-30T15:55:58;4.80;;;4.30;;
21733;SDS011;11029;47.820;10.534;2022-09-30T15:58:52;4.53;;;4.13;;
21733;SDS011;11029;47.820;10.534;2022-09-30T16:01:21;8.70;;;6.65;;
21733;SDS011;11029;47.820;10.534;2022-09-30T16:04:03;14.60;;;10.13;;
21733;SDS011;11029;47.820;10.534;2022-09-30T16:11:45;9.55;;;8.55;;
21733;SDS011;11029;47.820;10.534;2022-09-30T16:17:17;6.00;;;5.40;;
21733;SDS011;11029;47.820;10.534;2022-09-30T16:19:51;6.00;;;5.38;;
21733;SDS011;11029;47.820;10.534;2022-09-30T16:23:12;5.88;;;3.78;;
21733;SDS011;11029;47.820;10.534;2022-09-30T16:25:25;7.85;;;7.05;;
21733;SDS011;11029;47.820;10.534;2022-09-30T16:27:55;14.95;;;10.55;;
21733;SDS011;11029;47.820;10.534;2022-09-30T16:30:26;7.15;;;6.18;;
21733;SDS011;11029;47.820;10.534;2022-09-30T16:32:55;7.78;;;6.15;;
21733;SDS011;11029;47.820;10.534;2022-09-30T16:35:26;6.93;;;6.22;;
21733;SDS011;11029;47.820;10.534;2022-09-30T16:38:00;9.70;;;7.93;;
21733;SDS011;11029;47.820;10.534;2022-09-30T16:40:29;25.92;;;16.52;;
21733;SDS011;11029;47.820;10.534;2022-09-30T16:42:57;10.38;;;7.53;;
21733;SDS011;11029;47.820;10.534;2022-09-30T16:45:25;8.80;;;7.00;;
21733;SDS011;11029;47.820;10.534;2022-09-30T16:47:55;8.88;;;7.28;;
21733;SDS011;11029;47.820;10.534;2022-09-30T16:52:49;8.55;;;6.85;;
21733;SDS011;11029;47.820;10.534;2022-09-30T16:55:15;9.65;;;7.43;;
21733;SDS011;11029;47.820;10.534;2022-09-30T16:57:42;11.30;;;8.05;;
21733;SDS011;11029;47.820;10.534;2022-09-30T17:00:15;8.43;;;6.70;;
21733;SDS011;11029;47.820;10.534;2022-09-30T17:02:48;8.95;;;6.97;;
21733;SDS011;11029;47.820;10.534;2022-09-30T17:05:16;13.85;;;8.98;;
21733;SDS011;11029;47.820;10.534;2022-09-30T17:07:45;26.63;;;13.52;;
21733;SDS011;11029;47.820;10.534;2022-09-30T17:10:27;12.43;;;8.23;;
21733;SDS011;11029;47.820;10.534;2022-09-30T17:12:58;10.50;;;7.50;;
21733;SDS011;11029;47.820;10.534;2022-09-30T17:15:26;12.10;;;8.60;;
21733;SDS011;11029;47.820;10.534;2022-09-30T17:17:54;14.05;;;9.85;;
21733;SDS011;11029;47.820;10.534;2022-09-30T17:20:21;12.52;;;8.88;;
21733;SDS011;11029;47.820;10.534;2022-09-30T17:22:49;11.88;;;8.60;;
21733;SDS011;11029;47.820;10.534;2022-09-30T17:25:16;10.13;;;8.55;;
21733;SDS011;11029;47.820;10.534;2022-09-30T17:27:45;19.33;;;12.95;;
21733;SDS011;11029;47.820;10.534;2022-09-30T17:32:43;54.22;;;29.83;;
21733;SDS011;11029;47.820;10.534;2022-09-30T17:35:11;27.83;;;18.90;;
21733;SDS011;11029;47.820;10.534;2022-09-30T17:37:38;17.63;;;12.88;;
21733;SDS011;11029;47.820;10.534;2022-09-30T17:40:10;18.75;;;13.65;;
21733;SDS011;11029;47.820;10.534;2022-09-30T17:42:55;15.10;;;12.20;;
21733;SDS011;11029;47.820;10.534;2022-09-30T17:45:42;12.68;;;10.55;;
21733;SDS011;11029;47.820;10.534;2022-09-30T17:48:11;13.65;;;8.30;;
21733;SDS011;11029;47.820;10.534;2022-09-30T17:50:40;7.43;;;6.00;;
21733;SDS011;11029;47.820;10.534;2022-09-30T17:53:12;9.48;;;6.40;;
21733;SDS011;11029;47.820;10.534;2022-09-30T17:55:43;8.40;;;6.72;;
21733;SDS011;11029;47.820;10.534;2022-09-30T17:58:15;11.63;;;5.53;;
21733;SDS011;11029;47.820;10.534;2022-09-30T18:00:42;5.93;;;5.03;;
21733;SDS011;11029;47.820;10.534;2022-09-30T18:03:10;6.75;;;5.20;;
21733;SDS011;11029;47.820;10.534;2022-09-30T18:05:37;7.15;;;5.50;;
21733;SDS011;11029;47.820;10.534;2022-09-30T18:08:04;7.05;;;6.35;;
21733;SDS011;11029;47.820;10.534;2022-09-30T18:10:31;9.93;;;8.05;;
21733;SDS011;11029;47.820;10.534;2022-09-30T18:13:01;13.10;;;8.18;;
21733;SDS011;11029;47.820;10.534;2022-09-30T18:15:28;11.23;;;9.80;;
21733;SDS011;11029;47.820;10.534;2022-09-30T18:17:54;13.35;;;8.50;;
21733;SDS011;11029;47.820;10.534;2022-09-30T18:20:21;10.63;;;8.00;;
21733;SDS011;11029;47.820;10.534;2022-09-30T18:22:50;10.30;;;8.27;;
21733;SDS011;11029;47.820;10.534;2022-09-30T18:25:17;9.77;;;7.68;;
21733;SDS011;11029;47.820;10.534;2022-09-30T18:27:57;9.13;;;7.20;;
21733;SDS011;11029;47.820;10.534;2022-09-30T18:30:24;12.95;;;8.80;;
21733;SDS011;11029;47.820;10.534;2022-09-30T18:32:52;9.32;;;7.90;;
21733;SDS011;11029;47.820;10.534;2022-09-30T18:35:20;9.77;;;7.60;;
21733;SDS011;11029;47.820;10.534;2022-09-30T18:37:49;8.93;;;7.50;;
21733;SDS011;11029;47.820;10.534;2022-09-30T18:40:20;8.57;;;7.43;;
21733;SDS011;11029;47.820;10.534;2022-09-30T18:42:54;9.82;;;7.63;;
21733;SDS011;11029;47.820;10.534;2022-09-30T18:45:28;10.23;;;8.13;;
21733;SDS011;11029;47.820;10.534;2022-09-30T18:47:56;10.18;;;8.50;;
21733;SDS011;11029;47.820;10.534;2022-09-30T18:50:26;9.98;;;7.50;;
21733;SDS011;11029;47.820;10.534;2022-09-30T18:52:54;8.60;;;7.35;;
21733;SDS011;11029;47.820;10.534;2022-09-30T18:55:21;11.68;;;8.15;;
21733;SDS011;11029;47.820;10.534;2022-09-30T18:57:48;10.27;;;7.72;;
21733;SDS011;11029;47.820;10.534;2022-09-30T19:00:18;8.93;;;6.93;;
21733;SDS011;11029;47.820;10.534;2022-09-30T19:02:45;8.98;;;7.07;;
21733;SDS011;11029;47.820;10.534;2022-09-30T19:05:13;10.85;;;7.03;;
21733;SDS011;11029;47.820;10.534;2022-09-30T19:07:40;14.05;;;8.60;;
21733;SDS011;11029;47.820;10.534;2022-09-30T19:10:07;8.02;;;6.20;;
21733;SDS011;11029;47.820;10.534;2022-09-30T19:12:35;6.97;;;6.00;;
21733;SDS011;11029;47.820;10.534;2022-09-30T19:15:03;7.53;;;5.82;;
21733;SDS011;11029;47.820;10.534;2022-09-30T19:17:34;9.33;;;5.70;;
21733;SDS011;11029;47.820;10.534;2022-09-30T19:20:03;6.82;;;5.93;;
21733;SDS011;11029;47.820;10.534;2022-09-30T19:22:31;6.55;;;5.45;;
21733;SDS011;11029;47.820;10.534;2022-09-30T19:25:06;7.78;;;6.70;;
21733;SDS011;11029;47.820;10.534;2022-09-30T19:27:35;8.82;;;6.88;;
21733;SDS011;11029;47.820;10.534;2022-09-30T19:30:04;10.25;;;7.50;;
21733;SDS011;11029;47.820;10.534;2022-09-30T19:32:34;8.63;;;6.97;;
21733;SDS011;11029;47.820;10.534;2022-09-30T19:35:05;13.20;;;7.10;;
21733;SDS011;11029;47.820;10.534;2022-09-30T19:37:37;13.98;;;9.10;;
21733;SDS011;11029;47.820;10.534;2022-09-30T19:40:19;10.48;;;7.70;;
21733;SDS011;11029;47.820;10.534;2022-09-30T19:42:47;10.45;;;7.57;;
21733;SDS011;11029;47.820;10.534;2022-09-30T19:45:14;10.82;;;8.20;;
21733;SDS011;11029;47.820;10.534;2022-09-30T19:47:43;11.55;;;8.88;;
21733;SDS011;11029;47.820;10.534;2022-09-30T19:50:09;14.52;;;9.73;;
21733;SDS011;11029;47.820;10.534;2022-09-30T19:52:36;18.52;;;12.68;;
21733;SDS011;11029;47.820;10.534;2022-09-30T19:55:18;14.85;;;9.40;;
21733;SDS011;11029;47.820;10.534;2022-09-30T19:57:45;14.15;;;10.00;;
21733;SDS011;11029;47.820;10.534;2022-09-30T20:00:12;14.38;;;9.90;;
21733;SDS011;11029;47.820;10.534;2022-09-30T20:02:39;11.00;;;8.27;;
21733;SDS011;11029;47.820;10.534;2022-09-30T20:05:06;11.70;;;7.47;;
21733;SDS011;11029;47.820;10.534;2022-09-30T20:07:33;10.77;;;7.78;;
21733;SDS011;11029;47.820;10.534;2022-09-30T20:10:00;10.40;;;7.38;;
21733;SDS011;11029;47.820;10.534;2022-09-30T20:12:27;10.98;;;7.80;;
21733;SDS011;11029;47.820;10.534;2022-09-30T20:14:54;10.65;;;8.30;;
21733;SDS011;11029;47.820;10.534;2022-09-30T20:17:40;10.18;;;7.85;;
21733;SDS011;11029;47.820;10.534;2022-09-30T20:20:07;11.07;;;8.35;;
21733;SDS011;11029;47.820;10.534;2022-09-30T20:22:53;11.13;;;8.40;;
21733;SDS011;11029;47.820;10.534;2022-09-30T20:25:19;12.65;;;8.20;;
21733;SDS011;11029;47.820;10.534;2022-09-30T20:27:46;10.93;;;8.40;;
21733;SDS011;11029;47.820;10.534;2022-09-30T20:30:18;11.18;;;7.68;;
21733;SDS011;11029;47.820;10.534;2022-09-30T20:32:45;9.52;;;7.10;;
21733;SDS011;11029;47.820;10.534;2022-09-30T20:35:12;11.95;;;7.93;;
21733;SDS011;11029;47.820;10.534;2022-09-30T20:37:39;11.68;;;8.55;;
21733;SDS011;11029;47.820;10.534;2022-09-30T20:40:07;11.82;;;8.88;;
21733;SDS011;11029;47.820;10.534;2022-09-30T20:42:34;12.43;;;9.18;;
21733;SDS011;11029;47.820;10.534;2022-09-30T20:45:04;10.70;;;8.05;;
21733;SDS011;11029;47.820;10.534;2022-09-30T20:47:31;9.95;;;7.90;;
21733;SDS011;11029;47.820;10.534;2022-09-30T20:49:58;11.13;;;8.32;;
21733;SDS011;11029;47.820;10.534;2022-09-30T20:52:25;9.27;;;7.50;;
21733;SDS011;11029;47.820;10.534;2022-09-30T20:54:51;10.85;;;8.10;;
21733;SDS011;11029;47.820;10.534;2022-09-30T20:57:18;10.70;;;8.15;;
21733;SDS011;11029;47.820;10.534;2022-09-30T20:59:45;10.23;;;7.65;;
21733;SDS011;11029;47.820;10.534;2022-09-30T21:02:12;10.23;;;7.65;;
21733;SDS011;11029;47.820;10.534;2022-09-30T21:04:39;12.30;;;8.27;;
21733;SDS011;11029;47.820;10.534;2022-09-30T21:07:07;10.38;;;8.13;;
21733;SDS011;11029;47.820;10.534;2022-09-30T21:09:33;10.05;;;7.35;;
21733;SDS011;11029;47.820;10.534;2022-09-30T21:12:00;11.98;;;8.52;;
21733;SDS011;11029;47.820;10.534;2022-09-30T21:14:27;11.35;;;8.30;;
21733;SDS011;11029;47.820;10.534;2022-09-30T21:16:54;11.23;;;8.65;;
21733;SDS011;11029;47.820;10.534;2022-09-30T21:19:20;17.88;;;8.50;;
21733;SDS011;11029;47.820;10.534;2022-09-30T21:21:47;12.70;;;8.80;;
21733;SDS011;11029;47.820;10.534;2022-09-30T21:24:14;10.88;;;8.32;;
21733;SDS011;11029;47.820;10.534;2022-09-30T21:26:41;10.45;;;7.45;;
21733;SDS011;11029;47.820;10.534;2022-09-30T21:29:08;9.52;;;7.38;;
21733;SDS011;11029;47.820;10.534;2022-09-30T21:31:35;12.15;;;8.40;;
21733;SDS011;11029;47.820;10.534;2022-09-30T21:34:03;14.70;;;7.43;;
21733;SDS011;11029;47.820;10.534;2022-09-30T21:36:29;10.05;;;7.32;;
21733;SDS011;11029;47.820;10.534;2022-09-30T21:39:00;9.13;;;7.22;;
21733;SDS011;11029;47.820;10.534;2022-09-30T21:41:27;7.22;;;6.15;;
21733;SDS011;11029;47.820;10.534;2022-09-30T21:43:57;10.40;;;6.60;;
21733;SDS011;11029;47.820;10.534;2022-09-30T21:46:25;8.48;;;6.55;;
21733;SDS011;11029;47.820;10.534;2022-09-30T21:49:02;10.43;;;7.68;;
21733;SDS011;11029;47.820;10.534;2022-09-30T21:51:30;10.73;;;7.07;;
21733;SDS011;11029;47.820;10.534;2022-09-30T21:53:59;8.27;;;6.63;;
21733;SDS011;11029;47.820;10.534;2022-09-30T21:56:27;9.30;;;6.97;;
21733;SDS011;11029;47.820;10.534;2022-09-30T21:58:54;8.88;;;6.70;;
21733;SDS011;11029;47.820;10.534;2022-09-30T22:01:21;10.07;;;6.78;;
21733;SDS011;11029;47.820;10.534;2022-09-30T22:03:48;10.63;;;7.60;;
21733;SDS011;11029;47.820;10.534;2022-09-30T22:06:15;8.18;;;6.75;;
21733;SDS011;11029;47.820;10.534;2022-09-30T22:08:43;10.18;;;7.50;;
21733;SDS011;11029;47.820;10.534;2022-09-30T22:11:15;9.32;;;6.97;;
21733;SDS011;11029;47.820;10.534;2022-09-30T22:13:47;9.07;;;7.00;;
21733;SDS011;11029;47.820;10.534;2022-09-30T22:16:14;8.60;;;6.55;;
21733;SDS011;11029;47.820;10.534;2022-09-30T22:18:41;7.90;;;6.72;;
21733;SDS011;11029;47.820;10.534;2022-09-30T22:21:10;7.72;;;6.30;;
21733;SDS011;11029;47.820;10.534;2022-09-30T22:23:38;8.90;;;6.57;;
21733;SDS011;11029;47.820;10.534;2022-09-30T22:28:34;9.32;;;6.82;;
21733;SDS011;11029;47.820;10.534;2022-09-30T22:31:08;9.45;;;6.90;;
21733;SDS011;11029;47.820;10.534;2022-09-30T22:33:46;11.05;;;7.03;;
21733;SDS011;11029;47.820;10.534;2022-09-30T22:36:33;9.18;;;7.22;;
21733;SDS011;11029;47.820;10.534;2022-09-30T22:39:19;7.55;;;6.15;;
21733;SDS011;11029;47.820;10.534;2022-09-30T22:41:46;9.27;;;7.18;;
21733;SDS011;11029;47.820;10.534;2022-09-30T22:44:21;8.85;;;7.43;;
21733;SDS011;11029;47.820;10.534;2022-09-30T22:46:51;7.95;;;6.43;;
21733;SDS011;11029;47.820;10.534;2022-09-30T22:49:18;8.48;;;6.65;;
21733;SDS011;11029;47.820;10.534;2022-09-30T22:51:49;8.68;;;6.97;;
21733;SDS011;11029;47.820;10.534;2022-09-30T22:54:17;9.95;;;7.10;;
21733;SDS011;11029;47.820;10.534;2022-09-30T22:56:44;8.07;;;6.18;;
21733;SDS011;11029;47.820;10.534;2022-09-30T22:59:11;6.82;;;5.55;;
21733;SDS011;11029;47.820;10.534;2022-09-30T23:01:37;6.13;;;5.22;;
21733;SDS011;11029;47.820;10.534;2022-09-30T23:04:04;5.55;;;4.95;;
21733;SDS011;11029;47.820;10.534;2022-09-30T23:06:31;5.20;;;4.63;;
21733;SDS011;11029;47.820;10.534;2022-09-30T23:08:58;6.07;;;5.30;;
21733;SDS011;11029;47.820;10.534;2022-09-30T23:11:24;5.80;;;5.00;;
21733;SDS011;11029;47.820;10.534;2022-09-30T23:13:51;6.13;;;5.53;;
21733;SDS011;11029;47.820;10.534;2022-09-30T23:16:24;6.25;;;5.22;;
21733;SDS011;11029;47.820;10.534;2022-09-30T23:18:51;5.72;;;5.03;;
21733;SDS011;11029;47.820;10.534;2022-09-30T23:21:18;6.88;;;5.65;;
21733;SDS011;11029;47.820;10.534;2022-09-30T23:23:45;9.00;;;5.43;;
21733;SDS011;11029;47.820;10.534;2022-09-30T23:28:58;7.80;;;5.68;;
21733;SDS011;11029;47.820;10.534;2022-09-30T23:31:26;7.45;;;5.53;;
21733;SDS011;11029;47.820;10.534;2022-09-30T23:33:55;7.55;;;5.93;;
21733;SDS011;11029;47.820;10.534;2022-09-30T23:36:24;6.75;;;5.43;;
21733;SDS011;11029;47.820;10.534;2022-09-30T23:39:01;7.40;;;5.18;;
21733;SDS011;11029;47.820;10.534;2022-09-30T23:41:40;7.90;;;5.50;;
21733;SDS011;11029;47.820;10.534;2022-09-30T23:44:11;5.90;;;5.20;;
21733;SDS011;11029;47.820;10.534;2022-09-30T23:46:39;5.45;;;4.93;;
21733;SDS011;11029;47.820;10.534;2022-09-30T23:49:26;6.88;;;5.28;;
21733;SDS011;11029;47.820;10.534;2022-09-30T23:51:53;6.00;;;4.85;;
21733;SDS011;11029;47.820;10.534;2022-09-30T23:54:20;5.68;;;4.95;;
21733;SDS011;11029;47.820;10.534;2022-09-30T23:56:46;5.70;;;4.95;;
21733;SDS011;11029;47.820;10.534;2022-09-30T23:59:13;6.97;;;5.10;;
